createdAt,value
2018-09-14T00:00:25.392Z,17.70
2018-09-14T00:01:00.949Z,10.60
2018-09-14T00:01:36.487Z,9.60
2018-09-14T00:02:11.812Z,11.40
2018-09-14T00:02:47.216Z,11.20
2018-09-14T00:03:22.439Z,17.60
2018-09-14T00:03:57.811Z,19.90
2018-09-14T00:04:33.143Z,10.60
2018-09-14T00:05:08.542Z,14.40
2018-09-14T00:05:44.041Z,17.30
2018-09-14T00:06:19.342Z,14.40
2018-09-14T00:06:54.518Z,15.90
2018-09-14T00:07:29.825Z,13.00
2018-09-14T00:08:05.096Z,12.80
2018-09-14T00:08:40.305Z,12.60
2018-09-14T00:09:15.573Z,17.20
2018-09-14T00:09:50.960Z,18.40
2018-09-14T00:10:26.235Z,9.50
2018-09-14T00:11:01.746Z,11.40
2018-09-14T00:11:37.230Z,14.80
2018-09-14T00:12:12.635Z,15.10
2018-09-14T00:12:47.732Z,13.70
2018-09-14T00:13:22.828Z,13.30
2018-09-14T00:13:58.090Z,10.40
2018-09-14T00:14:33.296Z,10.00
2018-09-14T00:15:08.617Z,15.40
2018-09-14T00:15:43.826Z,14.50
2018-09-14T00:16:19.176Z,13.50
2018-09-14T00:16:54.487Z,11.40
2018-09-14T00:17:29.656Z,10.30
2018-09-14T00:18:04.740Z,11.40
2018-09-14T00:18:40.318Z,13.30
2018-09-14T00:19:15.736Z,10.70
2018-09-14T00:19:51.333Z,17.00
2018-09-14T00:20:26.494Z,18.10
2018-09-14T00:21:02.058Z,15.80
2018-09-14T00:21:37.470Z,14.20
2018-09-14T00:22:12.638Z,15.80
2018-09-14T00:22:48.044Z,15.90
2018-09-14T00:23:23.213Z,14.80
2018-09-14T00:23:58.310Z,13.70
2018-09-14T00:24:33.720Z,13.50
2018-09-14T00:25:09.308Z,12.80
2018-09-14T00:25:44.522Z,18.90
2018-09-14T00:26:19.801Z,15.70
2018-09-14T00:26:55.254Z,13.30
2018-09-14T00:27:30.601Z,12.30
2018-09-14T00:28:06.325Z,18.30
2018-09-14T00:28:41.590Z,13.70
2018-09-14T00:29:16.794Z,11.70
2018-09-14T00:29:52.096Z,14.40
2018-09-14T00:30:27.554Z,9.80
2018-09-14T00:31:02.703Z,10.90
2018-09-14T00:31:37.972Z,14.50
2018-09-14T00:32:13.492Z,17.70
2018-09-14T00:32:51.921Z,14.10
2018-09-14T00:33:27.255Z,16.00
2018-09-14T00:34:02.826Z,12.90
2018-09-14T00:34:38.258Z,17.30
2018-09-14T00:35:13.412Z,13.80
2018-09-14T00:35:48.742Z,12.50
2018-09-14T00:36:24.148Z,13.30
2018-09-14T00:36:59.523Z,12.00
2018-09-14T00:37:34.881Z,14.40
2018-09-14T00:38:10.250Z,17.30
2018-09-14T00:38:45.820Z,13.40
2018-09-14T00:39:21.027Z,14.50
2018-09-14T00:39:56.438Z,16.30
2018-09-14T00:40:31.711Z,15.00
2018-09-14T00:41:07.145Z,11.70
2018-09-14T00:41:42.614Z,14.30
2018-09-14T00:42:18.034Z,16.60
2018-09-14T00:42:53.153Z,12.60
2018-09-14T00:43:28.747Z,12.60
2018-09-14T00:44:03.858Z,12.40
2018-09-14T00:44:39.050Z,9.10
2018-09-14T00:45:14.127Z,13.70
2018-09-14T00:45:49.418Z,19.40
2018-09-14T00:46:25.181Z,12.10
2018-09-14T00:47:00.386Z,11.30
2018-09-14T00:47:35.630Z,15.30
2018-09-14T00:48:10.849Z,13.90
2018-09-14T00:48:46.169Z,11.20
2018-09-14T00:49:21.646Z,11.80
2018-09-14T00:49:57.253Z,13.20
2018-09-14T00:50:32.412Z,16.70
2018-09-14T00:51:07.544Z,13.50
2018-09-14T00:51:43.052Z,12.70
2018-09-14T00:52:18.558Z,14.10
2018-09-14T00:52:53.956Z,13.00
2018-09-14T00:53:29.257Z,12.80
2018-09-14T00:54:04.360Z,14.70
2018-09-14T00:54:39.642Z,12.30
2018-09-14T00:55:14.848Z,14.10
2018-09-14T00:55:50.217Z,13.40
2018-09-14T00:56:25.284Z,15.00
2018-09-14T00:57:00.539Z,13.80
2018-09-14T00:57:35.737Z,12.70
2018-09-14T00:58:10.912Z,13.90
2018-09-14T00:58:46.218Z,15.10
2018-09-14T00:59:21.482Z,13.60
2018-09-14T00:59:56.894Z,17.70
2018-09-14T01:00:32.297Z,18.30
2018-09-14T01:01:07.421Z,12.20
2018-09-14T01:01:42.925Z,13.20
2018-09-14T01:02:18.165Z,13.60
2018-09-14T01:02:53.446Z,12.20
2018-09-14T01:03:28.990Z,11.70
2018-09-14T01:04:04.757Z,13.40
2018-09-14T01:04:40.250Z,14.30
2018-09-14T01:05:15.775Z,10.70
2018-09-14T01:05:50.965Z,13.00
2018-09-14T01:06:26.391Z,14.40
2018-09-14T01:07:01.747Z,16.60
2018-09-14T01:07:37.114Z,15.60
2018-09-14T01:08:12.287Z,14.40
2018-09-14T01:08:47.697Z,15.90
2018-09-14T01:09:22.714Z,14.50
2018-09-14T01:09:58.311Z,14.60
2018-09-14T01:10:33.509Z,13.20
2018-09-14T01:11:09.083Z,10.50
2018-09-14T01:11:44.420Z,13.00
2018-09-14T01:12:19.804Z,17.00
2018-09-14T01:12:55.285Z,11.90
2018-09-14T01:13:30.775Z,13.90
2018-09-14T01:14:06.096Z,14.90
2018-09-14T01:14:41.570Z,14.50
2018-09-14T01:15:17.029Z,16.00
2018-09-14T01:15:52.708Z,16.60
2018-09-14T01:16:28.246Z,17.50
2018-09-14T01:17:03.619Z,14.30
2018-09-14T01:17:39.076Z,15.50
2018-09-14T01:18:14.304Z,17.60
2018-09-14T01:18:49.633Z,18.40
2018-09-14T01:19:24.978Z,18.20
2018-09-14T01:20:00.486Z,13.50
2018-09-14T01:20:36.021Z,12.10
2018-09-14T01:21:11.095Z,16.90
2018-09-14T01:21:46.663Z,15.10
2018-09-14T01:22:22.063Z,12.50
2018-09-14T01:22:57.347Z,12.80
2018-09-14T01:23:32.753Z,14.70
2018-09-14T01:24:08.213Z,15.80
2018-09-14T01:24:43.810Z,13.70
2018-09-14T01:25:19.397Z,11.60
2018-09-14T01:25:54.689Z,14.60
2018-09-14T01:26:30.121Z,17.70
2018-09-14T01:27:05.455Z,20.30
2018-09-14T01:27:40.731Z,18.20
2018-09-14T01:28:16.064Z,17.90
2018-09-14T01:28:51.466Z,20.70
2018-09-14T01:29:26.778Z,17.80
2018-09-14T01:30:01.999Z,16.30
2018-09-14T01:30:37.417Z,15.60
2018-09-14T01:31:12.946Z,14.20
2018-09-14T01:31:48.171Z,11.90
2018-09-14T01:32:23.416Z,14.40
2018-09-14T01:32:58.828Z,19.40
2018-09-14T01:33:34.472Z,17.20
2018-09-14T01:34:09.743Z,13.30
2018-09-14T01:34:44.887Z,15.20
2018-09-14T01:35:20.128Z,16.10
2018-09-14T01:35:55.432Z,17.30
2018-09-14T01:36:30.751Z,17.50
2018-09-14T01:37:06.526Z,18.20
2018-09-14T01:37:41.923Z,14.90
2018-09-14T01:38:17.356Z,14.60
2018-09-14T01:38:52.472Z,17.40
2018-09-14T01:39:27.751Z,15.70
2018-09-14T01:40:03.565Z,14.40
2018-09-14T01:40:39.207Z,13.80
2018-09-14T01:41:14.488Z,15.50
2018-09-14T01:41:49.710Z,14.50
2018-09-14T01:42:25.091Z,13.60
2018-09-14T01:43:00.596Z,13.20
2018-09-14T01:43:35.677Z,13.90
2018-09-14T01:44:11.071Z,16.10
2018-09-14T01:44:46.464Z,16.70
2018-09-14T01:45:21.808Z,16.10
2018-09-14T01:45:57.107Z,17.40
2018-09-14T01:46:32.554Z,15.70
2018-09-14T01:47:07.722Z,16.30
2018-09-14T01:47:42.927Z,18.90
2018-09-14T01:48:18.245Z,21.20
2018-09-14T01:48:53.638Z,19.10
2018-09-14T01:49:28.848Z,17.80
2018-09-14T01:50:04.005Z,17.60
2018-09-14T01:50:39.521Z,16.40
2018-09-14T01:51:14.940Z,14.40
2018-09-14T01:51:50.289Z,23.20
2018-09-14T01:52:25.487Z,20.80
2018-09-14T01:53:01.008Z,14.90
2018-09-14T01:53:36.324Z,17.30
2018-09-14T01:54:11.523Z,17.40
2018-09-14T01:54:46.978Z,17.00
2018-09-14T01:55:22.303Z,12.80
2018-09-14T01:55:57.642Z,17.20
2018-09-14T01:56:32.997Z,21.70
2018-09-14T01:57:08.432Z,21.50
2018-09-14T01:57:43.835Z,19.60
2018-09-14T01:58:19.197Z,19.00
2018-09-14T01:58:54.488Z,14.50
2018-09-14T01:59:29.734Z,18.70
2018-09-14T02:00:05.301Z,22.40
2018-09-14T02:00:40.954Z,21.60
2018-09-14T02:01:16.338Z,18.80
2018-09-14T02:01:51.702Z,16.30
2018-09-14T02:02:27.212Z,14.90
2018-09-14T02:03:02.783Z,22.60
2018-09-14T02:03:38.456Z,23.80
2018-09-14T02:04:13.801Z,20.60
2018-09-14T02:04:49.371Z,21.20
2018-09-14T02:05:24.597Z,16.90
2018-09-14T02:06:00.170Z,19.90
2018-09-14T02:06:35.382Z,19.30
2018-09-14T02:07:10.772Z,19.20
2018-09-14T02:07:46.289Z,14.90
2018-09-14T02:08:21.889Z,15.20
2018-09-14T02:08:57.407Z,19.60
2018-09-14T02:09:32.592Z,20.40
2018-09-14T02:10:07.865Z,19.60
2018-09-14T02:10:43.338Z,15.90
2018-09-14T02:11:18.674Z,14.60
2018-09-14T02:11:54.212Z,13.80
2018-09-14T02:12:29.517Z,18.50
2018-09-14T02:13:04.742Z,20.10
2018-09-14T02:13:40.317Z,22.90
2018-09-14T02:14:15.451Z,18.90
2018-09-14T02:14:50.613Z,16.30
2018-09-14T02:15:25.891Z,16.50
2018-09-14T02:16:01.309Z,15.50
2018-09-14T02:16:36.909Z,17.30
2018-09-14T02:17:12.086Z,20.50
2018-09-14T02:17:47.347Z,19.20
2018-09-14T02:18:22.655Z,20.00
2018-09-14T02:18:57.975Z,20.60
2018-09-14T02:19:33.412Z,17.20
2018-09-14T02:20:09.234Z,16.30
2018-09-14T02:20:44.502Z,17.30
2018-09-14T02:21:19.877Z,20.40
2018-09-14T02:21:55.227Z,20.00
2018-09-14T02:22:30.471Z,20.90
2018-09-14T02:23:05.675Z,17.00
2018-09-14T02:23:41.088Z,14.90
2018-09-14T02:24:16.386Z,19.10
2018-09-14T02:24:51.912Z,19.40
2018-09-14T02:25:27.425Z,19.30
2018-09-14T02:26:02.762Z,21.80
2018-09-14T02:26:38.172Z,18.70
2018-09-14T02:27:13.419Z,17.90
2018-09-14T02:27:48.729Z,19.30
2018-09-14T02:28:23.945Z,14.50
2018-09-14T02:28:59.282Z,15.80
2018-09-14T02:29:34.399Z,20.90
2018-09-14T02:30:09.690Z,18.40
2018-09-14T02:30:45.057Z,19.30
2018-09-14T02:31:20.849Z,15.00
2018-09-14T02:31:55.962Z,18.40
2018-09-14T02:32:31.086Z,18.80
2018-09-14T02:33:06.355Z,20.20
2018-09-14T02:33:41.468Z,22.40
2018-09-14T02:34:16.870Z,21.30
2018-09-14T02:34:52.558Z,25.10
2018-09-14T02:35:28.141Z,23.00
2018-09-14T02:36:03.539Z,22.40
2018-09-14T02:36:38.903Z,17.70
2018-09-14T02:37:14.192Z,14.30
2018-09-14T02:37:49.743Z,15.30
2018-09-14T02:38:25.078Z,13.40
2018-09-14T02:39:00.448Z,17.30
2018-09-14T02:39:35.937Z,19.90
2018-09-14T02:40:11.649Z,18.70
2018-09-14T02:40:47.405Z,14.40
2018-09-14T02:41:22.638Z,19.80
2018-09-14T02:41:57.818Z,21.80
2018-09-14T02:42:32.907Z,17.90
2018-09-14T02:43:08.362Z,18.30
2018-09-14T02:43:43.954Z,19.40
2018-09-14T02:44:19.224Z,17.70
2018-09-14T02:44:54.764Z,15.20
2018-09-14T02:45:30.182Z,16.10
2018-09-14T02:46:05.646Z,19.00
2018-09-14T02:46:41.046Z,19.40
2018-09-14T02:47:16.245Z,17.90
2018-09-14T02:47:51.643Z,15.30
2018-09-14T02:48:27.227Z,17.10
2018-09-14T02:49:02.663Z,16.70
2018-09-14T02:49:38.215Z,16.60
2018-09-14T02:50:13.464Z,19.10
2018-09-14T02:50:48.724Z,15.90
2018-09-14T02:51:24.111Z,16.10
2018-09-14T02:51:59.633Z,16.20
2018-09-14T02:52:35.030Z,17.30
2018-09-14T02:53:10.280Z,19.00
2018-09-14T02:53:45.704Z,17.70
2018-09-14T02:54:20.891Z,20.90
2018-09-14T02:54:56.539Z,20.80
2018-09-14T02:55:31.775Z,17.50
2018-09-14T02:56:07.103Z,24.30
2018-09-14T02:56:42.842Z,25.50
2018-09-14T02:57:18.499Z,18.60
2018-09-14T02:57:53.965Z,19.00
2018-09-14T02:58:29.530Z,21.20
2018-09-14T02:59:05.161Z,19.90
2018-09-14T02:59:40.434Z,22.70
2018-09-14T03:00:15.825Z,23.40
2018-09-14T03:00:51.025Z,26.00
2018-09-14T03:01:26.060Z,26.00
2018-09-14T03:02:01.273Z,22.50
2018-09-14T03:02:36.309Z,18.50
2018-09-14T03:03:11.679Z,17.70
2018-09-14T03:03:47.115Z,18.50
2018-09-14T03:04:22.596Z,17.40
2018-09-14T03:04:58.069Z,16.10
2018-09-14T03:05:33.142Z,15.20
2018-09-14T03:06:08.579Z,16.80
2018-09-14T03:06:44.050Z,17.40
2018-09-14T03:07:19.292Z,23.00
2018-09-14T03:07:54.602Z,20.30
2018-09-14T03:08:30.010Z,24.00
2018-09-14T03:09:05.611Z,20.00
2018-09-14T03:09:41.026Z,21.10
2018-09-14T03:10:16.338Z,30.20
2018-09-14T03:10:51.629Z,25.30
2018-09-14T03:11:26.932Z,17.90
2018-09-14T03:12:02.559Z,18.10
2018-09-14T03:12:38.725Z,21.40
2018-09-14T03:13:13.932Z,24.30
2018-09-14T03:13:49.147Z,23.70
2018-09-14T03:14:24.362Z,19.20
2018-09-14T03:14:59.858Z,19.40
2018-09-14T03:15:35.211Z,19.90
2018-09-14T03:16:10.851Z,16.00
2018-09-14T03:16:46.440Z,16.40
2018-09-14T03:17:21.409Z,17.80
2018-09-14T03:17:56.953Z,21.70
2018-09-14T03:18:32.316Z,21.80
2018-09-14T03:19:07.625Z,20.30
2018-09-14T03:19:43.202Z,19.80
2018-09-14T03:20:18.452Z,22.80
2018-09-14T03:20:53.509Z,23.60
2018-09-14T03:21:28.848Z,26.20
2018-09-14T03:22:04.012Z,23.50
2018-09-14T03:22:39.475Z,20.00
2018-09-14T03:23:14.745Z,23.60
2018-09-14T03:23:50.135Z,23.40
2018-09-14T03:24:25.195Z,18.50
2018-09-14T03:25:00.574Z,19.90
2018-09-14T03:25:36.161Z,20.80
2018-09-14T03:26:11.422Z,23.00
2018-09-14T03:26:46.696Z,17.70
2018-09-14T03:27:22.092Z,15.80
2018-09-14T03:27:57.254Z,20.40
2018-09-14T03:28:32.377Z,21.40
2018-09-14T03:29:07.793Z,19.50
2018-09-14T03:29:42.983Z,18.90
2018-09-14T03:30:18.325Z,22.00
2018-09-14T03:30:53.612Z,23.90
2018-09-14T03:31:28.925Z,20.50
2018-09-14T03:32:04.154Z,17.60
2018-09-14T03:32:39.318Z,16.20
2018-09-14T03:33:14.681Z,16.20
2018-09-14T03:33:50.388Z,16.40
2018-09-14T03:34:25.753Z,21.70
2018-09-14T03:35:00.820Z,18.80
2018-09-14T03:35:36.199Z,17.80
2018-09-14T03:36:11.593Z,16.10
2018-09-14T03:36:46.968Z,17.80
2018-09-14T03:37:22.535Z,23.60
2018-09-14T03:37:58.376Z,24.20
2018-09-14T03:38:33.806Z,20.30
2018-09-14T03:39:09.139Z,19.30
2018-09-14T03:39:44.696Z,18.60
2018-09-14T03:40:20.419Z,20.60
2018-09-14T03:40:55.811Z,28.60
2018-09-14T03:41:31.245Z,25.70
2018-09-14T03:42:06.547Z,21.20
2018-09-14T03:42:41.849Z,22.90
2018-09-14T03:43:17.125Z,21.40
2018-09-14T03:43:52.290Z,20.00
2018-09-14T03:44:27.351Z,21.10
2018-09-14T03:45:02.946Z,20.60
2018-09-14T03:45:38.293Z,23.30
2018-09-14T03:46:13.643Z,23.30
2018-09-14T03:46:49.118Z,24.40
2018-09-14T03:47:24.578Z,25.80
2018-09-14T03:47:59.747Z,24.60
2018-09-14T03:48:35.038Z,24.10
2018-09-14T03:49:10.417Z,25.80
2018-09-14T03:49:45.846Z,23.40
2018-09-14T03:50:21.152Z,20.30
2018-09-14T03:50:56.667Z,18.90
2018-09-14T03:51:31.928Z,19.10
2018-09-14T03:52:07.361Z,22.40
2018-09-14T03:52:42.868Z,25.60
2018-09-14T03:53:18.219Z,22.60
2018-09-14T03:53:53.397Z,22.20
2018-09-14T03:54:28.712Z,21.80
2018-09-14T03:55:03.919Z,21.90
2018-09-14T03:55:39.414Z,27.10
2018-09-14T03:56:15.194Z,22.80
2018-09-14T03:56:50.562Z,19.60
2018-09-14T03:57:25.982Z,22.00
2018-09-14T03:58:01.092Z,21.10
2018-09-14T03:58:36.600Z,24.30
2018-09-14T03:59:12.193Z,24.80
2018-09-14T03:59:47.479Z,23.60
2018-09-14T04:00:22.707Z,23.60
2018-09-14T04:00:58.038Z,18.30
2018-09-14T04:01:33.267Z,16.30
2018-09-14T04:02:08.702Z,17.10
2018-09-14T04:02:44.279Z,20.30
2018-09-14T04:03:19.638Z,19.30
2018-09-14T04:03:55.204Z,21.90
2018-09-14T04:04:30.616Z,23.70
2018-09-14T04:05:06.004Z,20.40
2018-09-14T04:05:41.537Z,21.00
2018-09-14T04:06:16.707Z,21.70
2018-09-14T04:06:51.983Z,22.60
2018-09-14T04:07:27.467Z,21.50
2018-09-14T04:08:02.454Z,21.50
2018-09-14T04:08:37.912Z,20.90
2018-09-14T04:09:13.253Z,22.60
2018-09-14T04:09:48.567Z,21.70
2018-09-14T04:10:23.809Z,19.10
2018-09-14T04:10:58.834Z,23.20
2018-09-14T04:11:34.230Z,23.30
2018-09-14T04:12:09.397Z,21.70
2018-09-14T04:12:45.116Z,26.40
2018-09-14T04:13:20.532Z,24.90
2018-09-14T04:13:55.639Z,24.40
2018-09-14T04:14:30.748Z,23.30
2018-09-14T04:15:06.148Z,22.80
2018-09-14T04:15:41.570Z,20.60
2018-09-14T04:16:16.907Z,22.10
2018-09-14T04:16:52.217Z,24.90
2018-09-14T04:17:27.513Z,24.70
2018-09-14T04:18:02.904Z,17.80
2018-09-14T04:18:38.307Z,16.00
2018-09-14T04:19:13.520Z,17.20
2018-09-14T04:19:48.963Z,18.30
2018-09-14T04:20:24.267Z,20.30
2018-09-14T04:20:59.891Z,18.00
2018-09-14T04:21:35.076Z,20.00
2018-09-14T04:22:10.639Z,21.40
2018-09-14T04:22:46.006Z,25.70
2018-09-14T04:23:21.204Z,25.30
2018-09-14T04:23:56.556Z,22.80
2018-09-14T04:24:31.987Z,23.00
2018-09-14T04:25:07.216Z,26.20
2018-09-14T04:25:42.506Z,27.00
2018-09-14T04:26:18.114Z,20.60
2018-09-14T04:26:53.278Z,23.90
2018-09-14T04:27:28.644Z,25.20
2018-09-14T04:28:04.153Z,24.70
2018-09-14T04:28:39.435Z,24.50
2018-09-14T04:29:14.995Z,25.80
2018-09-14T04:29:50.403Z,25.80
2018-09-14T04:30:25.539Z,28.00
2018-09-14T04:31:00.695Z,26.80
2018-09-14T04:31:35.988Z,22.20
2018-09-14T04:32:11.606Z,21.40
2018-09-14T04:32:47.073Z,23.20
2018-09-14T04:33:22.180Z,22.10
2018-09-14T04:33:57.236Z,23.00
2018-09-14T04:34:32.295Z,21.80
2018-09-14T04:35:07.830Z,31.90
2018-09-14T04:35:42.998Z,31.00
2018-09-14T04:36:18.401Z,27.40
2018-09-14T04:36:53.555Z,22.80
2018-09-14T04:37:28.842Z,23.20
2018-09-14T04:38:04.273Z,24.10
2018-09-14T04:38:39.611Z,21.30
2018-09-14T04:39:15.150Z,20.60
2018-09-14T04:39:50.535Z,21.00
2018-09-14T04:40:25.820Z,18.40
2018-09-14T04:41:01.130Z,21.00
2018-09-14T04:41:36.336Z,27.00
2018-09-14T04:42:11.820Z,24.90
2018-09-14T04:42:47.426Z,21.00
2018-09-14T04:43:22.600Z,23.80
2018-09-14T04:43:57.661Z,25.00
2018-09-14T04:44:32.987Z,24.40
2018-09-14T04:45:08.251Z,21.90
2018-09-14T04:45:43.716Z,20.60
2018-09-14T04:46:18.924Z,19.20
2018-09-14T04:46:54.242Z,22.10
2018-09-14T04:47:29.518Z,22.40
2018-09-14T04:48:04.756Z,21.40
2018-09-14T04:48:40.191Z,23.20
2018-09-14T04:49:15.428Z,25.30
2018-09-14T04:49:50.955Z,24.90
2018-09-14T04:50:26.351Z,19.90
2018-09-14T04:51:01.453Z,25.40
2018-09-14T04:51:36.788Z,26.80
2018-09-14T04:52:12.078Z,24.90
2018-09-14T04:52:47.254Z,22.10
2018-09-14T04:53:22.614Z,22.20
2018-09-14T04:53:58.029Z,23.30
2018-09-14T04:54:33.543Z,22.70
2018-09-14T04:55:08.724Z,22.20
2018-09-14T04:55:44.404Z,22.10
2018-09-14T04:56:19.994Z,21.50
2018-09-14T04:56:55.320Z,20.80
2018-09-14T04:57:30.608Z,23.50
2018-09-14T04:58:05.741Z,22.60
2018-09-14T04:58:41.120Z,18.00
2018-09-14T04:59:16.584Z,21.50
2018-09-14T04:59:51.849Z,21.90
2018-09-14T05:00:27.038Z,23.80
2018-09-14T05:01:02.399Z,24.40
2018-09-14T05:01:37.626Z,27.50
2018-09-14T05:02:13.266Z,23.80
2018-09-14T05:02:48.498Z,22.70
2018-09-14T05:03:23.937Z,20.60
2018-09-14T05:03:59.223Z,21.20
2018-09-14T05:04:34.335Z,22.00
2018-09-14T05:05:09.983Z,21.20
2018-09-14T05:05:45.472Z,18.00
2018-09-14T05:06:21.014Z,16.50
2018-09-14T05:06:56.256Z,22.70
2018-09-14T05:07:31.633Z,22.70
2018-09-14T05:08:07.223Z,26.20
2018-09-14T05:08:42.689Z,28.60
2018-09-14T05:09:18.162Z,17.00
2018-09-14T05:09:53.559Z,18.20
2018-09-14T05:10:28.838Z,17.80
2018-09-14T05:11:04.160Z,22.40
2018-09-14T05:11:39.937Z,22.50
2018-09-14T05:12:15.376Z,18.90
2018-09-14T05:12:50.435Z,17.20
2018-09-14T05:13:25.771Z,18.80
2018-09-14T05:14:00.955Z,18.90
2018-09-14T05:14:36.284Z,19.90
2018-09-14T05:15:11.609Z,23.70
2018-09-14T05:15:46.837Z,22.00
2018-09-14T05:16:22.129Z,23.00
2018-09-14T05:16:57.397Z,24.30
2018-09-14T05:17:32.983Z,24.50
2018-09-14T05:18:08.354Z,27.00
2018-09-14T05:18:43.649Z,25.10
2018-09-14T05:19:19.108Z,24.10
2018-09-14T05:19:54.564Z,23.40
2018-09-14T05:20:29.894Z,24.50
2018-09-14T05:21:05.262Z,22.80
2018-09-14T05:21:40.743Z,23.80
2018-09-14T05:22:15.960Z,26.50
2018-09-14T05:22:51.236Z,23.10
2018-09-14T05:23:26.560Z,23.30
2018-09-14T05:24:01.767Z,24.40
2018-09-14T05:24:37.152Z,22.20
2018-09-14T05:25:12.665Z,21.50
2018-09-14T05:25:47.811Z,26.80
2018-09-14T05:26:23.187Z,24.40
2018-09-14T05:26:58.355Z,19.60
2018-09-14T05:27:33.523Z,24.30
2018-09-14T05:28:09.156Z,28.90
2018-09-14T05:28:44.617Z,30.00
2018-09-14T05:29:19.904Z,31.50
2018-09-14T05:29:55.517Z,31.40
2018-09-14T05:30:31.267Z,23.90
2018-09-14T05:31:06.977Z,21.70
2018-09-14T05:31:42.286Z,20.40
2018-09-14T05:32:17.765Z,22.00
2018-09-14T05:32:53.443Z,25.50
2018-09-14T05:33:28.759Z,27.20
2018-09-14T05:34:04.548Z,25.50
2018-09-14T05:34:40.079Z,26.80
2018-09-14T05:35:15.235Z,27.00
2018-09-14T05:35:50.549Z,27.40
2018-09-14T05:36:25.805Z,35.20
2018-09-14T05:37:01.014Z,40.30
2018-09-14T05:37:36.513Z,35.90
2018-09-14T05:38:12.145Z,37.00
2018-09-14T05:38:47.431Z,36.50
2018-09-14T05:39:22.865Z,34.20
2018-09-14T05:39:58.276Z,31.90
2018-09-14T05:40:33.242Z,28.90
2018-09-14T05:41:08.516Z,20.80
2018-09-14T05:41:43.706Z,20.80
2018-09-14T05:42:19.218Z,19.60
2018-09-14T05:42:54.915Z,23.60
2018-09-14T05:43:30.541Z,30.30
2018-09-14T05:44:05.707Z,26.40
2018-09-14T05:44:40.914Z,22.70
2018-09-14T05:45:16.258Z,19.50
2018-09-14T05:45:51.459Z,17.20
2018-09-14T05:46:26.800Z,19.90
2018-09-14T05:47:02.083Z,24.40
2018-09-14T05:47:37.663Z,25.20
2018-09-14T05:48:13.101Z,24.70
2018-09-14T05:48:48.173Z,27.30
2018-09-14T05:49:23.529Z,26.50
2018-09-14T05:49:58.999Z,18.80
2018-09-14T05:50:34.212Z,20.50
2018-09-14T05:51:09.664Z,23.30
2018-09-14T05:51:45.045Z,26.20
2018-09-14T05:52:20.218Z,25.50
2018-09-14T05:52:55.703Z,26.40
2018-09-14T05:53:31.144Z,21.20
2018-09-14T05:54:06.459Z,23.70
2018-09-14T05:54:41.779Z,29.00
2018-09-14T05:55:16.914Z,28.80
2018-09-14T05:55:52.307Z,22.80
2018-09-14T05:56:27.851Z,21.10
2018-09-14T05:57:03.257Z,19.90
2018-09-14T05:57:38.802Z,23.90
2018-09-14T05:58:14.328Z,24.50
2018-09-14T05:58:50.007Z,22.60
2018-09-14T05:59:25.207Z,22.40
2018-09-14T06:00:00.819Z,19.60
2018-09-14T06:00:36.310Z,18.20
2018-09-14T06:01:11.520Z,14.70
2018-09-14T06:01:46.730Z,16.00
2018-09-14T06:02:22.276Z,18.90
2018-09-14T06:02:57.599Z,16.80
2018-09-14T06:03:33.054Z,14.30
2018-09-14T06:04:08.405Z,17.50
2018-09-14T06:04:43.900Z,19.00
2018-09-14T06:05:19.017Z,21.40
2018-09-14T06:05:54.289Z,17.80
2018-09-14T06:06:29.725Z,21.50
2018-09-14T06:07:05.174Z,23.50
2018-09-14T06:07:40.545Z,23.60
2018-09-14T06:08:15.929Z,23.50
2018-09-14T06:08:51.271Z,22.80
2018-09-14T06:09:26.596Z,22.90
2018-09-14T06:10:01.987Z,18.60
2018-09-14T06:10:37.223Z,14.70
2018-09-14T06:11:12.394Z,16.80
2018-09-14T06:11:47.844Z,19.60
2018-09-14T06:12:23.166Z,19.80
2018-09-14T06:12:58.401Z,21.30
2018-09-14T06:13:33.712Z,17.80
2018-09-14T06:14:09.696Z,16.60
2018-09-14T06:14:45.237Z,13.10
2018-09-14T06:15:20.688Z,11.70
2018-09-14T06:15:55.906Z,20.10
2018-09-14T06:16:31.211Z,19.70
2018-09-14T06:17:06.618Z,15.10
2018-09-14T06:17:42.023Z,18.10
2018-09-14T06:18:17.333Z,22.40
2018-09-14T06:18:52.779Z,13.70
2018-09-14T06:19:28.567Z,15.50
2018-09-14T06:20:03.812Z,17.20
2018-09-14T06:20:39.189Z,18.30
2018-09-14T06:21:14.688Z,16.70
2018-09-14T06:21:50.056Z,14.60
2018-09-14T06:22:25.163Z,16.90
2018-09-14T06:23:00.532Z,17.80
2018-09-14T06:23:35.743Z,14.50
2018-09-14T06:24:10.854Z,15.10
2018-09-14T06:24:46.438Z,17.20
2018-09-14T06:25:22.061Z,19.20
2018-09-14T06:25:57.571Z,19.40
2018-09-14T06:26:32.939Z,18.70
2018-09-14T06:27:08.460Z,16.50
2018-09-14T06:27:43.679Z,19.20
2018-09-14T06:28:19.177Z,19.70
2018-09-14T06:28:54.554Z,19.60
2018-09-14T06:29:29.775Z,16.70
2018-09-14T06:30:05.415Z,13.60
2018-09-14T06:30:41.085Z,12.90
2018-09-14T06:31:16.574Z,16.60
2018-09-14T06:31:51.885Z,17.40
2018-09-14T06:32:27.152Z,15.10
2018-09-14T06:33:02.769Z,16.00
2018-09-14T06:33:38.145Z,18.10
2018-09-14T06:34:13.543Z,19.30
2018-09-14T06:34:48.907Z,20.70
2018-09-14T06:35:24.171Z,16.10
2018-09-14T06:35:59.491Z,15.80
2018-09-14T06:36:34.748Z,13.30
2018-09-14T06:37:09.958Z,12.30
2018-09-14T06:37:45.506Z,14.40
2018-09-14T06:38:20.759Z,15.20
2018-09-14T06:38:55.850Z,15.60
2018-09-14T06:39:31.028Z,15.80
2018-09-14T06:40:06.393Z,13.90
2018-09-14T06:40:41.697Z,13.70
2018-09-14T06:41:17.152Z,19.50
2018-09-14T06:41:52.588Z,18.90
2018-09-14T06:42:28.337Z,16.70
2018-09-14T06:43:03.722Z,20.80
2018-09-14T06:43:39.020Z,20.80
2018-09-14T06:44:14.590Z,17.40
2018-09-14T06:44:49.929Z,15.30
2018-09-14T06:45:25.246Z,17.70
2018-09-14T06:46:00.808Z,20.20
2018-09-14T06:46:36.116Z,20.30
2018-09-14T06:47:11.511Z,20.40
2018-09-14T06:47:47.051Z,17.30
2018-09-14T06:48:22.369Z,22.20
2018-09-14T06:48:57.863Z,24.60
2018-09-14T06:49:33.311Z,19.00
2018-09-14T06:50:08.599Z,16.80
2018-09-14T06:50:44.033Z,18.90
2018-09-14T06:51:19.478Z,17.20
2018-09-14T06:51:54.699Z,19.10
2018-09-14T06:52:30.448Z,19.80
2018-09-14T06:53:05.644Z,16.40
2018-09-14T06:53:40.999Z,13.90
2018-09-14T06:54:16.644Z,33.50
2018-09-14T06:54:52.071Z,17.30
2018-09-14T06:55:27.349Z,14.60
2018-09-14T06:56:02.782Z,15.10
2018-09-14T06:56:38.434Z,21.80
2018-09-14T06:57:13.746Z,19.20
2018-09-14T06:57:49.185Z,14.80
2018-09-14T06:58:24.539Z,14.90
2018-09-14T06:58:59.994Z,15.00
2018-09-14T06:59:35.637Z,14.10
2018-09-14T07:00:11.076Z,15.00
2018-09-14T07:00:46.613Z,13.30
2018-09-14T07:01:22.036Z,15.20
2018-09-14T07:01:57.394Z,16.00
2018-09-14T07:02:32.732Z,12.70
2018-09-14T07:03:08.319Z,13.30
2018-09-14T07:03:43.940Z,14.00
2018-09-14T07:04:19.158Z,14.90
2018-09-14T07:04:54.583Z,15.00
2018-09-14T07:05:29.996Z,15.00
2018-09-14T07:06:05.632Z,18.70
2018-09-14T07:06:41.026Z,18.70
2018-09-14T07:07:16.617Z,14.80
2018-09-14T07:07:52.238Z,13.30
2018-09-14T07:08:27.683Z,14.40
2018-09-14T07:09:02.998Z,14.90
2018-09-14T07:09:38.219Z,18.60
2018-09-14T07:10:13.622Z,18.70
2018-09-14T07:10:49.040Z,15.00
2018-09-14T07:11:24.385Z,16.70
2018-09-14T07:11:59.686Z,15.00
2018-09-14T07:12:35.045Z,15.70
2018-09-14T07:13:10.581Z,17.40
2018-09-14T07:13:45.802Z,19.10
2018-09-14T07:14:21.225Z,20.50
2018-09-14T07:14:56.579Z,14.10
2018-09-14T07:15:31.873Z,12.20
2018-09-14T07:16:07.283Z,12.90
2018-09-14T07:16:42.891Z,13.50
2018-09-14T07:17:18.233Z,13.40
2018-09-14T07:17:53.607Z,14.60
2018-09-14T07:18:29.057Z,12.20
2018-09-14T07:19:04.555Z,12.30
2018-09-14T07:19:40.283Z,15.60
2018-09-14T07:20:15.531Z,15.70
2018-09-14T07:20:51.213Z,14.90
2018-09-14T07:21:26.945Z,14.90
2018-09-14T07:22:02.327Z,14.80
2018-09-14T07:22:37.622Z,19.20
2018-09-14T07:23:13.180Z,16.30
2018-09-14T07:23:48.707Z,13.00
2018-09-14T07:24:24.133Z,14.30
2018-09-14T07:24:59.721Z,11.40
2018-09-14T07:25:34.927Z,13.40
2018-09-14T07:26:10.023Z,12.50
2018-09-14T07:26:45.389Z,17.50
2018-09-14T07:27:20.816Z,13.30
2018-09-14T07:27:56.011Z,13.80
2018-09-14T07:28:31.356Z,16.00
2018-09-14T07:29:06.706Z,14.00
2018-09-14T07:29:41.922Z,13.70
2018-09-14T07:30:17.394Z,14.50
2018-09-14T07:30:52.831Z,14.70
2018-09-14T07:31:28.277Z,14.10
2018-09-14T07:32:03.819Z,13.60
2018-09-14T07:32:39.101Z,13.90
2018-09-14T07:33:14.844Z,12.20
2018-09-14T07:33:50.281Z,10.90
2018-09-14T07:34:25.424Z,13.70
2018-09-14T07:35:00.711Z,12.50
2018-09-14T07:35:36.437Z,12.50